createdAt,value
2023-05-14T00:00:53.496Z,13.52
2023-05-14T00:03:20.207Z,13.77
2023-05-14T00:05:46.700Z,12.68
2023-05-14T00:08:13.304Z,12.10
2023-05-14T00:10:39.763Z,11.80
2023-05-14T00:13:06.302Z,11.40
2023-05-14T00:15:34.331Z,10.93
2023-05-14T00:18:01.272Z,11.40
2023-05-14T00:20:27.966Z,10.48
2023-05-14T00:22:54.571Z,12.38
2023-05-14T00:25:21.101Z,11.85
2023-05-14T00:27:47.658Z,12.30
2023-05-14T00:30:14.286Z,11.52
2023-05-14T00:32:41.313Z,10.85
2023-05-14T00:35:08.301Z,11.82
2023-05-14T00:37:36.425Z,10.95
2023-05-14T00:40:03.921Z,11.80
2023-05-14T00:42:30.449Z,12.85
2023-05-14T00:44:56.992Z,12.43
2023-05-14T00:47:23.862Z,13.32
2023-05-14T00:49:50.454Z,10.85
2023-05-14T00:52:17.903Z,12.10
2023-05-14T00:54:46.707Z,12.38
2023-05-14T00:57:16.319Z,10.98
2023-05-14T00:59:43.015Z,12.15
2023-05-14T01:02:09.606Z,11.40
2023-05-14T01:04:37.782Z,11.38
2023-05-14T01:07:34.520Z,12.23
2023-05-14T01:10:04.081Z,11.63
2023-05-14T01:12:58.369Z,10.85
2023-05-14T01:15:29.110Z,11.57
2023-05-14T01:18:13.632Z,12.48
2023-05-14T01:20:40.284Z,12.30
2023-05-14T01:23:07.957Z,10.52
2023-05-14T01:25:35.201Z,12.75
2023-05-14T01:28:26.608Z,12.52
2023-05-14T01:31:12.075Z,10.88
2023-05-14T01:33:42.298Z,10.60
2023-05-14T01:36:09.949Z,12.32
2023-05-14T01:38:37.701Z,13.48
2023-05-14T01:41:05.270Z,10.93
2023-05-14T01:47:06.147Z,12.05
2023-05-14T01:49:32.589Z,12.13
2023-05-14T01:51:59.037Z,11.27
2023-05-14T01:54:25.541Z,11.52
2023-05-14T01:56:52.027Z,11.25
2023-05-14T01:59:18.423Z,11.18
2023-05-14T02:01:44.836Z,12.20
2023-05-14T02:04:11.468Z,11.35
2023-05-14T02:06:41.923Z,10.60
2023-05-14T02:09:08.366Z,11.15
2023-05-14T02:11:34.779Z,10.63
2023-05-14T02:14:01.255Z,12.23
2023-05-14T02:16:27.751Z,11.18
2023-05-14T02:18:54.355Z,11.70
2023-05-14T02:21:20.838Z,11.35
2023-05-14T02:23:49.364Z,11.80
2023-05-14T02:26:16.085Z,11.73
2023-05-14T02:28:42.602Z,11.30
2023-05-14T02:31:09.010Z,12.18
2023-05-14T02:33:35.535Z,12.20
2023-05-14T02:36:01.958Z,11.70
2023-05-14T02:38:29.331Z,10.43
2023-05-14T02:40:56.276Z,11.68
2023-05-14T02:43:25.522Z,12.07
2023-05-14T02:45:51.916Z,13.68
2023-05-14T02:48:18.655Z,11.52
2023-05-14T02:50:45.821Z,11.40
2023-05-14T02:53:12.330Z,12.90
2023-05-14T02:55:38.786Z,12.05
2023-05-14T02:58:05.192Z,12.70
2023-05-14T03:00:31.650Z,11.52
2023-05-14T03:02:58.626Z,11.85
2023-05-14T03:05:25.544Z,12.38
2023-05-14T03:07:53.483Z,11.35
2023-05-14T03:10:20.716Z,12.77
2023-05-14T03:12:47.550Z,11.98
2023-05-14T03:15:13.964Z,11.32
2023-05-14T03:17:40.545Z,11.50
2023-05-14T03:20:07.381Z,10.73
2023-05-14T03:22:35.609Z,11.15
2023-05-14T03:25:02.027Z,10.85
2023-05-14T03:27:28.459Z,13.13
2023-05-14T03:29:54.837Z,11.95
2023-05-14T03:32:21.401Z,10.95
2023-05-14T03:34:47.894Z,10.43
2023-05-14T03:37:14.388Z,10.50
2023-05-14T03:39:40.830Z,11.88
2023-05-14T03:42:07.781Z,10.57
2023-05-14T03:44:34.248Z,11.07
2023-05-14T03:47:00.708Z,11.20
2023-05-14T03:49:27.598Z,10.05
2023-05-14T03:51:55.164Z,10.35
2023-05-14T03:54:21.791Z,8.77
2023-05-14T03:56:48.362Z,10.13
2023-05-14T03:59:14.738Z,10.02
2023-05-14T04:01:41.213Z,10.40
2023-05-14T04:04:07.800Z,10.15
2023-05-14T04:06:34.759Z,9.98
2023-05-14T04:09:02.149Z,9.38
2023-05-14T04:11:28.692Z,8.75
2023-05-14T04:13:55.674Z,9.65
2023-05-14T04:16:22.451Z,9.40
2023-05-14T04:18:49.024Z,9.10
2023-05-14T04:21:15.542Z,10.25
2023-05-14T04:23:41.931Z,9.23
2023-05-14T04:26:08.470Z,9.73
2023-05-14T04:28:34.833Z,8.68
2023-05-14T04:31:01.315Z,8.95
2023-05-14T04:33:27.762Z,9.40
2023-05-14T04:35:54.339Z,8.80
2023-05-14T04:38:20.723Z,8.48
2023-05-14T04:40:47.116Z,8.60
2023-05-14T04:43:13.493Z,7.93
2023-05-14T04:45:41.087Z,8.95
2023-05-14T04:48:07.842Z,8.55
2023-05-14T04:50:35.125Z,8.75
2023-05-14T04:53:01.541Z,8.98
2023-05-14T04:55:28.252Z,9.27
2023-05-14T04:57:54.772Z,8.85
2023-05-14T05:00:22.203Z,8.05
2023-05-14T05:02:48.977Z,8.32
2023-05-14T05:05:15.554Z,7.35
2023-05-14T05:07:42.016Z,7.80
2023-05-14T05:10:08.857Z,7.88
2023-05-14T05:12:35.345Z,7.70
2023-05-14T05:15:02.032Z,8.02
2023-05-14T05:17:29.664Z,7.50
2023-05-14T05:19:56.202Z,7.10
2023-05-14T05:22:23.398Z,6.78
2023-05-14T05:24:50.215Z,7.93
2023-05-14T05:27:16.655Z,7.72
2023-05-14T05:29:44.417Z,7.00
2023-05-14T05:32:10.927Z,7.05
2023-05-14T05:34:37.537Z,7.85
2023-05-14T05:37:05.863Z,7.43
2023-05-14T05:39:34.688Z,7.13
2023-05-14T05:42:02.473Z,6.82
2023-05-14T05:44:28.984Z,7.45
2023-05-14T05:46:57.239Z,7.78
2023-05-14T05:49:24.506Z,7.30
2023-05-14T05:51:50.943Z,7.50
2023-05-14T05:54:17.551Z,8.05
2023-05-14T05:56:43.921Z,7.20
2023-05-14T05:59:11.561Z,7.32
2023-05-14T06:01:38.079Z,7.30
2023-05-14T06:04:06.209Z,7.72
2023-05-14T06:06:33.037Z,7.45
2023-05-14T06:08:59.608Z,7.53
2023-05-14T06:11:26.541Z,8.93
2023-05-14T06:13:53.471Z,8.50
2023-05-14T06:16:19.916Z,7.90
2023-05-14T06:18:46.982Z,7.32
2023-05-14T06:21:13.754Z,8.52
2023-05-14T06:23:40.485Z,8.57
2023-05-14T06:26:06.881Z,7.28
2023-05-14T06:28:33.381Z,9.60
2023-05-14T06:30:59.763Z,7.47
2023-05-14T06:33:30.703Z,8.02
2023-05-14T06:35:59.488Z,7.78
2023-05-14T06:38:25.852Z,7.47
2023-05-14T06:40:55.098Z,9.02
2023-05-14T06:43:21.861Z,7.78
2023-05-14T06:45:49.305Z,7.45
2023-05-14T06:48:18.578Z,7.88
2023-05-14T06:50:49.061Z,7.40
2023-05-14T06:53:16.355Z,7.68
2023-05-14T06:55:42.861Z,7.97
2023-05-14T06:58:09.918Z,6.80
2023-05-14T07:00:36.298Z,7.13
2023-05-14T07:03:02.882Z,7.05
2023-05-14T07:05:29.452Z,6.22
2023-05-14T07:07:55.936Z,6.28
2023-05-14T07:10:23.076Z,6.00
2023-05-14T07:12:49.839Z,5.55
2023-05-14T07:15:16.602Z,6.50
2023-05-14T07:17:43.153Z,6.30
2023-05-14T07:20:10.153Z,5.72
2023-05-14T07:22:36.660Z,5.30
2023-05-14T07:25:03.654Z,5.03
2023-05-14T07:27:30.844Z,5.25
2023-05-14T07:29:57.286Z,4.50
2023-05-14T07:32:25.695Z,5.07
2023-05-14T07:34:52.280Z,5.07
2023-05-14T07:37:18.879Z,5.75
2023-05-14T07:39:45.292Z,4.97
2023-05-14T07:42:24.650Z,5.95
2023-05-14T07:44:54.902Z,5.43
2023-05-14T07:47:21.410Z,6.03
2023-05-14T07:49:47.865Z,7.07
2023-05-14T07:52:14.639Z,5.47
2023-05-14T07:54:41.550Z,5.55
2023-05-14T07:57:08.302Z,5.68
2023-05-14T07:59:35.897Z,5.28
2023-05-14T08:02:02.937Z,5.13
2023-05-14T08:04:29.707Z,5.57
2023-05-14T08:06:58.060Z,5.28
2023-05-14T08:09:26.095Z,5.53
2023-05-14T08:11:52.611Z,5.55
2023-05-14T08:14:21.408Z,6.70
2023-05-14T08:16:50.014Z,6.00
2023-05-14T08:19:16.969Z,5.45
2023-05-14T08:21:43.458Z,5.50
2023-05-14T08:24:11.102Z,4.55
2023-05-14T08:26:39.037Z,5.85
2023-05-14T08:29:07.484Z,7.20
2023-05-14T08:31:36.230Z,5.35
2023-05-14T08:34:02.667Z,5.20
2023-05-14T08:36:29.050Z,5.00
2023-05-14T08:38:55.764Z,4.60
2023-05-14T08:41:23.352Z,5.00
2023-05-14T08:44:07.459Z,4.90
2023-05-14T08:46:35.341Z,4.60
2023-05-14T08:49:25.295Z,4.15
2023-05-14T08:51:51.880Z,4.25
2023-05-14T08:54:19.157Z,4.30
2023-05-14T08:56:46.687Z,4.45
2023-05-14T08:59:16.380Z,4.55
2023-05-14T09:01:48.224Z,4.88
2023-05-14T09:04:22.017Z,5.90
2023-05-14T09:06:53.580Z,4.95
2023-05-14T09:09:23.714Z,4.03
2023-05-14T09:11:52.265Z,4.38
2023-05-14T09:14:21.634Z,3.92
2023-05-14T09:16:50.816Z,3.85
2023-05-14T09:19:19.528Z,4.30
2023-05-14T09:21:47.896Z,3.75
2023-05-14T09:24:21.979Z,3.88
2023-05-14T09:26:56.704Z,3.95
2023-05-14T09:29:29.767Z,4.75
2023-05-14T09:31:57.997Z,4.63
2023-05-14T09:34:38.365Z,4.35
2023-05-14T09:37:10.057Z,4.47
2023-05-14T09:39:38.916Z,4.22
2023-05-14T09:42:09.021Z,3.83
2023-05-14T09:44:38.328Z,4.20
2023-05-14T09:47:05.131Z,5.20
2023-05-14T09:49:33.860Z,4.05
2023-05-14T09:52:02.523Z,3.85
2023-05-14T09:54:32.124Z,4.57
2023-05-14T09:56:58.518Z,4.43
2023-05-14T09:59:24.937Z,4.70
2023-05-14T10:01:52.421Z,3.65
2023-05-14T10:04:20.444Z,4.22
2023-05-14T10:06:51.169Z,4.43
2023-05-14T10:09:20.620Z,3.70
2023-05-14T10:11:53.258Z,3.05
2023-05-14T10:14:42.476Z,3.38
2023-05-14T10:17:18.072Z,3.38
2023-05-14T10:19:57.131Z,2.90
2023-05-14T10:22:27.241Z,3.42
2023-05-14T10:24:56.208Z,2.88
2023-05-14T10:27:23.195Z,2.45
2023-05-14T10:29:55.541Z,2.47
2023-05-14T10:32:26.517Z,3.20
2023-05-14T10:34:53.871Z,2.00
2023-05-14T10:37:25.879Z,2.30
2023-05-14T10:39:55.028Z,2.90
2023-05-14T10:42:43.330Z,2.95
2023-05-14T10:45:12.595Z,2.85
2023-05-14T10:47:42.769Z,2.33
2023-05-14T10:50:12.438Z,3.20
2023-05-14T10:52:42.986Z,3.15
2023-05-14T10:55:14.150Z,2.83
2023-05-14T10:57:45.294Z,2.40
2023-05-14T11:00:17.331Z,3.25
2023-05-14T11:02:45.165Z,2.58
2023-05-14T11:05:17.544Z,2.67
2023-05-14T11:07:48.919Z,2.70
2023-05-14T11:10:18.379Z,2.75
2023-05-14T11:12:46.991Z,3.00
2023-05-14T11:15:16.295Z,3.17
2023-05-14T11:17:45.642Z,2.60
2023-05-14T11:20:12.695Z,2.65
2023-05-14T11:22:41.688Z,2.70
2023-05-14T11:25:09.553Z,2.85
2023-05-14T11:27:44.549Z,3.00
2023-05-14T11:30:19.355Z,2.83
2023-05-14T11:32:48.850Z,2.83
2023-05-14T11:35:17.781Z,2.60
2023-05-14T11:37:55.869Z,3.05
2023-05-14T11:40:23.014Z,3.05
2023-05-14T11:42:53.649Z,2.25
2023-05-14T11:45:26.385Z,2.88
2023-05-14T11:47:55.032Z,2.83
2023-05-14T11:50:24.762Z,3.40
2023-05-14T11:52:55.959Z,2.38
2023-05-14T11:55:22.483Z,2.20
2023-05-14T11:57:49.017Z,2.53
2023-05-14T12:00:21.666Z,2.28
2023-05-14T12:02:49.666Z,2.53
2023-05-14T12:05:19.939Z,2.50
2023-05-14T12:07:48.818Z,2.42
2023-05-14T12:10:16.756Z,2.42
2023-05-14T12:12:47.431Z,2.40
2023-05-14T12:15:15.371Z,2.42
2023-05-14T12:17:42.020Z,2.55
2023-05-14T12:20:11.366Z,2.42
2023-05-14T12:22:38.490Z,2.40
2023-05-14T12:25:11.174Z,1.80
2023-05-14T12:27:38.026Z,2.25
2023-05-14T12:30:27.374Z,2.17
2023-05-14T12:32:53.684Z,2.90
2023-05-14T12:35:23.119Z,2.33
2023-05-14T12:37:50.984Z,2.20
2023-05-14T12:40:19.317Z,2.13
2023-05-14T12:42:49.214Z,2.45
2023-05-14T12:45:16.914Z,2.20
2023-05-14T12:47:43.753Z,2.03
2023-05-14T12:50:11.043Z,2.38
2023-05-14T12:52:39.907Z,2.25
2023-05-14T12:55:10.011Z,2.22
2023-05-14T12:57:38.587Z,2.80
2023-05-14T13:00:12.225Z,2.08
2023-05-14T13:02:42.852Z,1.90
2023-05-14T13:05:13.839Z,2.25
2023-05-14T13:07:41.002Z,1.70
2023-05-14T13:10:08.492Z,1.80
2023-05-14T13:12:36.410Z,2.13
2023-05-14T13:15:04.891Z,1.88
2023-05-14T13:17:31.519Z,2.03
2023-05-14T13:20:00.908Z,2.20
2023-05-14T13:22:29.572Z,2.08
2023-05-14T13:24:57.612Z,1.98
2023-05-14T13:27:24.153Z,2.08
2023-05-14T13:29:50.662Z,2.03
2023-05-14T13:32:18.399Z,2.05
2023-05-14T13:34:46.333Z,2.20
2023-05-14T13:37:14.932Z,2.28
2023-05-14T13:39:41.305Z,2.05
2023-05-14T13:42:08.688Z,2.28
2023-05-14T13:44:37.102Z,1.98
2023-05-14T13:47:05.216Z,2.47
2023-05-14T13:49:33.453Z,2.42
2023-05-14T13:51:59.860Z,2.20
2023-05-14T13:54:27.029Z,2.10
2023-05-14T13:56:55.382Z,2.45
2023-05-14T13:59:22.249Z,1.75
2023-05-14T14:01:50.001Z,2.35
2023-05-14T14:04:16.839Z,2.33
2023-05-14T14:06:43.917Z,1.88
2023-05-14T14:09:12.559Z,1.70
2023-05-14T14:11:41.893Z,1.65
2023-05-14T14:14:09.500Z,1.95
2023-05-14T14:16:37.763Z,2.05
2023-05-14T14:19:05.543Z,1.83
2023-05-14T14:21:34.248Z,2.00
2023-05-14T14:24:02.120Z,2.08
2023-05-14T14:26:29.520Z,1.70
2023-05-14T14:28:56.210Z,1.55
2023-05-14T14:31:22.708Z,1.83
2023-05-14T14:33:49.490Z,1.88
2023-05-14T14:36:16.633Z,1.95
2023-05-14T14:38:45.561Z,2.30
2023-05-14T14:41:12.432Z,1.58
2023-05-14T14:43:40.765Z,1.70
2023-05-14T14:46:09.906Z,1.70
2023-05-14T14:48:41.250Z,2.20
2023-05-14T14:51:10.176Z,1.80
2023-05-14T14:53:37.420Z,2.05
2023-05-14T14:56:05.686Z,1.52
2023-05-14T14:58:32.755Z,2.00
2023-05-14T15:01:01.675Z,2.55
2023-05-14T15:03:32.619Z,2.33
2023-05-14T15:05:59.377Z,2.03
2023-05-14T15:08:27.512Z,2.75
2023-05-14T15:10:59.560Z,2.40
2023-05-14T15:13:29.571Z,2.40
2023-05-14T15:15:58.710Z,3.22
2023-05-14T15:18:25.833Z,2.63
2023-05-14T15:20:52.758Z,2.65
2023-05-14T15:23:19.877Z,3.53
2023-05-14T15:25:46.332Z,4.38
2023-05-14T15:28:14.978Z,3.20
2023-05-14T15:30:44.009Z,2.63
2023-05-14T15:33:11.020Z,3.33
2023-05-14T15:38:26.613Z,3.42
2023-05-14T15:40:53.810Z,3.20
2023-05-14T15:43:20.763Z,2.50
2023-05-14T15:45:54.828Z,2.88
2023-05-14T15:48:22.318Z,2.88
2023-05-14T15:50:49.782Z,2.55
2023-05-14T15:53:17.250Z,2.95
2023-05-14T15:55:48.927Z,2.80
2023-05-14T16:00:47.306Z,2.92
2023-05-14T16:03:14.467Z,2.53
2023-05-14T16:05:46.060Z,2.80
2023-05-14T16:08:13.726Z,2.65
2023-05-14T16:10:40.185Z,2.92
2023-05-14T16:13:08.091Z,2.35
2023-05-14T16:15:34.388Z,2.85
2023-05-14T16:18:01.586Z,6.53
2023-05-14T16:20:31.710Z,5.00
2023-05-14T16:22:58.817Z,3.33
2023-05-14T16:25:26.392Z,3.38
2023-05-14T16:27:53.155Z,3.58
2023-05-14T16:30:19.634Z,4.72
2023-05-14T16:32:49.393Z,6.50
2023-05-14T16:35:17.109Z,9.90
2023-05-14T16:37:44.019Z,5.88
2023-05-14T16:40:12.179Z,4.80
2023-05-14T16:42:39.076Z,4.28
2023-05-14T16:45:08.573Z,4.00
2023-05-14T16:47:35.806Z,3.38
2023-05-14T16:50:02.521Z,3.45
2023-05-14T16:52:29.094Z,4.18
2023-05-14T16:54:55.849Z,3.10
2023-05-14T16:57:22.362Z,3.60
2023-05-14T16:59:48.864Z,3.33
2023-05-14T17:02:18.450Z,3.25
2023-05-14T17:04:45.201Z,2.97
2023-05-14T17:07:11.944Z,2.95
2023-05-14T17:09:38.621Z,3.45
2023-05-14T17:12:05.829Z,3.35
2023-05-14T17:14:32.324Z,3.25
2023-05-14T17:16:59.030Z,3.42
2023-05-14T17:19:25.866Z,3.03
2023-05-14T17:21:52.505Z,2.95
2023-05-14T17:24:19.449Z,3.17
2023-05-14T17:26:46.337Z,3.40
2023-05-14T17:29:12.800Z,3.30
2023-05-14T17:31:39.490Z,4.28
2023-05-14T17:34:06.227Z,3.45
2023-05-14T17:36:32.805Z,3.13
2023-05-14T17:38:59.303Z,3.30
2023-05-14T17:41:26.584Z,3.72
2023-05-14T17:43:53.448Z,4.22
2023-05-14T17:46:20.159Z,3.38
2023-05-14T17:48:46.740Z,3.92
2023-05-14T17:51:16.012Z,3.60
2023-05-14T17:53:42.574Z,3.67
2023-05-14T17:56:09.204Z,4.13
2023-05-14T17:58:36.113Z,4.40
2023-05-14T18:01:03.411Z,5.60
2023-05-14T18:03:30.317Z,4.50
2023-05-14T18:05:58.366Z,5.00
2023-05-14T18:08:24.963Z,4.43
2023-05-14T18:10:51.584Z,4.45
2023-05-14T18:13:18.307Z,3.90
2023-05-14T18:15:45.311Z,4.22
2023-05-14T18:18:12.286Z,3.53
2023-05-14T18:20:38.938Z,3.72
2023-05-14T18:23:05.634Z,3.97
2023-05-14T18:25:32.411Z,3.67
2023-05-14T18:27:59.178Z,3.47
2023-05-14T18:30:26.141Z,3.60
2023-05-14T18:32:52.772Z,4.00
2023-05-14T18:35:19.546Z,3.45
2023-05-14T18:37:46.151Z,4.25
2023-05-14T18:40:15.595Z,4.38
2023-05-14T18:42:43.501Z,4.10
2023-05-14T18:45:10.615Z,3.78
2023-05-14T18:47:39.579Z,4.53
2023-05-14T18:50:09.207Z,4.82
2023-05-14T18:52:35.841Z,4.03
2023-05-14T18:55:02.394Z,4.43
2023-05-14T18:57:37.952Z,5.80
2023-05-14T19:00:05.119Z,4.45
2023-05-14T19:02:31.752Z,5.72
2023-05-14T19:04:58.527Z,5.65
2023-05-14T19:07:25.812Z,6.07
2023-05-14T19:09:52.959Z,5.47
2023-05-14T19:12:19.470Z,5.57
2023-05-14T19:14:46.034Z,6.45
2023-05-14T19:17:12.779Z,6.97
2023-05-14T19:19:39.717Z,6.03
2023-05-14T19:22:06.796Z,6.57
2023-05-14T19:24:33.919Z,6.47
2023-05-14T19:27:00.693Z,7.18
2023-05-14T19:29:27.283Z,6.85
2023-05-14T19:31:54.007Z,6.68
2023-05-14T19:34:20.686Z,7.13
2023-05-14T19:36:49.969Z,7.55
2023-05-14T19:39:16.668Z,7.07
2023-05-14T19:41:43.396Z,5.97
2023-05-14T19:44:09.974Z,6.80
2023-05-14T19:46:36.529Z,6.97
2023-05-14T19:49:03.404Z,7.22
2023-05-14T19:51:30.483Z,7.35
2023-05-14T19:54:00.075Z,12.02
2023-05-14T19:56:27.795Z,9.85
2023-05-14T19:58:54.661Z,7.72
2023-05-14T20:01:21.281Z,8.30
2023-05-14T20:03:48.170Z,8.45
2023-05-14T20:06:14.833Z,8.27
2023-05-14T20:08:47.571Z,7.15
2023-05-14T20:11:15.610Z,8.27
2023-05-14T20:13:42.196Z,9.02
2023-05-14T20:16:08.944Z,8.15
2023-05-14T20:18:35.688Z,8.18
2023-05-14T20:21:02.454Z,8.20
2023-05-14T20:23:29.312Z,8.40
2023-05-14T20:25:56.184Z,8.52
2023-05-14T20:28:22.761Z,10.18
2023-05-14T20:30:49.366Z,9.27
2023-05-14T20:33:16.030Z,9.77
2023-05-14T20:35:43.912Z,10.07
2023-05-14T20:38:12.522Z,11.48
2023-05-14T20:40:39.455Z,10.13
2023-05-14T20:43:10.303Z,10.38
2023-05-14T20:45:36.872Z,10.55
2023-05-14T20:48:08.094Z,11.30
2023-05-14T20:50:34.702Z,12.00
2023-05-14T20:53:01.456Z,11.63
2023-05-14T20:55:28.446Z,12.18
2023-05-14T20:57:54.916Z,12.40
2023-05-14T21:00:22.002Z,14.57
2023-05-14T21:02:49.194Z,12.52
2023-05-14T21:05:17.193Z,14.57
2023-05-14T21:07:43.677Z,10.98
2023-05-14T21:10:10.733Z,7.45
2023-05-14T21:12:37.437Z,7.22
2023-05-14T21:15:04.398Z,6.75
2023-05-14T21:17:31.306Z,6.40
2023-05-14T21:19:57.872Z,5.55
2023-05-14T21:22:24.704Z,6.00
2023-05-14T21:24:51.426Z,5.47
2023-05-14T21:27:18.198Z,5.65
2023-05-14T21:29:47.602Z,5.90
2023-05-14T21:32:14.281Z,5.60
2023-05-14T21:34:40.898Z,6.60
2023-05-14T21:37:07.435Z,5.57
2023-05-14T21:39:36.061Z,5.63
2023-05-14T21:42:02.561Z,4.45
2023-05-14T21:44:29.173Z,5.53
2023-05-14T21:46:56.020Z,5.15
2023-05-14T21:49:22.526Z,5.70
2023-05-14T21:51:53.014Z,5.25
2023-05-14T21:54:20.912Z,5.20
2023-05-14T21:56:48.004Z,5.20
2023-05-14T21:59:14.532Z,6.20
2023-05-14T22:01:56.159Z,4.18
2023-05-14T22:04:27.645Z,5.47
2023-05-14T22:06:54.263Z,4.93
2023-05-14T22:09:22.219Z,4.80
2023-05-14T22:11:48.737Z,4.75
2023-05-14T22:14:18.586Z,5.07
2023-05-14T22:16:45.203Z,4.93
2023-05-14T22:19:11.898Z,5.18
2023-05-14T22:21:38.592Z,5.07
2023-05-14T22:24:05.608Z,5.03
2023-05-14T22:26:32.128Z,4.97
2023-05-14T22:28:58.949Z,4.72
2023-05-14T22:31:25.592Z,4.38
2023-05-14T22:33:54.956Z,5.13
2023-05-14T22:36:21.481Z,4.57
2023-05-14T22:38:48.022Z,4.38
2023-05-14T22:41:17.297Z,5.72
2023-05-14T22:46:04.887Z,4.85
2023-05-14T22:48:31.470Z,4.47
2023-05-14T22:50:58.001Z,4.50
2023-05-14T22:53:25.369Z,4.57
2023-05-14T22:55:52.096Z,3.78
2023-05-14T22:58:18.648Z,4.25
2023-05-14T23:00:45.332Z,5.22
2023-05-14T23:03:14.654Z,4.35
2023-05-14T23:05:41.213Z,4.20
2023-05-14T23:08:07.952Z,3.70
2023-05-14T23:10:35.546Z,4.40
2023-05-14T23:13:02.250Z,4.05
2023-05-14T23:15:29.052Z,4.25
2023-05-14T23:17:55.989Z,4.15
2023-05-14T23:20:22.663Z,4.65
2023-05-14T23:22:49.368Z,4.43
2023-05-14T23:25:15.958Z,4.70
2023-05-14T23:27:42.540Z,5.05
2023-05-14T23:30:09.745Z,5.35
2023-05-14T23:32:38.910Z,4.65
2023-05-14T23:35:05.648Z,6.32
2023-05-14T23:37:33.569Z,5.63
2023-05-14T23:40:00.198Z,5.38
2023-05-14T23:42:29.879Z,5.13
2023-05-14T23:44:56.381Z,6.10
2023-05-14T23:47:22.988Z,4.60
2023-05-14T23:49:49.850Z,6.10
2023-05-14T23:52:16.480Z,6.13
2023-05-14T23:54:42.939Z,5.82
2023-05-14T23:57:12.990Z,6.30
2023-05-14T23:59:40.973Z,5.75
